createdAt,value
2017-10-05T00:00:17.632Z,0
2017-10-05T00:01:27.889Z,0
2017-10-05T00:02:38.126Z,0
2017-10-05T00:03:48.066Z,0
2017-10-05T00:04:57.706Z,0
2017-10-05T00:06:08.198Z,0
2017-10-05T00:07:17.812Z,0
2017-10-05T00:08:27.429Z,0
2017-10-05T00:09:37.367Z,0
2017-10-05T00:10:47.629Z,0
2017-10-05T00:11:58.237Z,0
2017-10-05T00:13:08.491Z,0
2017-10-05T00:14:18.430Z,0
2017-10-05T00:15:28.676Z,0
2017-10-05T00:16:38.924Z,0
2017-10-05T00:17:49.519Z,0
2017-10-05T00:18:59.776Z,0
2017-10-05T00:20:10.027Z,0
2017-10-05T00:21:19.973Z,0
2017-10-05T00:22:30.231Z,0
2017-10-05T00:23:40.829Z,0
2017-10-05T00:24:50.764Z,0
2017-10-05T00:26:00.389Z,0
2017-10-05T00:27:10.639Z,0
2017-10-05T00:28:20.889Z,0
2017-10-05T00:29:31.121Z,0
2017-10-05T00:30:41.381Z,0
2017-10-05T00:31:51.631Z,0
2017-10-05T00:33:01.871Z,0
2017-10-05T00:34:11.808Z,0
2017-10-05T00:35:22.411Z,0
2017-10-05T00:36:32.669Z,0
2017-10-05T00:37:41.969Z,0
2017-10-05T00:38:52.227Z,0
2017-10-05T00:40:02.476Z,0
2017-10-05T00:41:12.757Z,0
2017-10-05T00:42:23.002Z,0
2017-10-05T00:43:33.276Z,0
2017-10-05T00:44:43.520Z,0
2017-10-05T00:45:53.452Z,0
2017-10-05T00:47:04.007Z,0
2017-10-05T00:48:13.953Z,0
2017-10-05T00:49:23.265Z,0
2017-10-05T00:50:33.549Z,0
2017-10-05T00:51:43.813Z,0
2017-10-05T00:52:54.361Z,0
2017-10-05T00:54:04.620Z,0
2017-10-05T00:55:14.885Z,0
2017-10-05T00:56:25.136Z,0
2017-10-05T00:57:35.068Z,0
2017-10-05T00:58:45.561Z,0
2017-10-05T00:59:55.514Z,0
2017-10-05T01:01:05.774Z,0
2017-10-05T01:02:15.716Z,0
2017-10-05T01:03:25.656Z,0
2017-10-05T01:04:36.144Z,0
2017-10-05T01:05:46.392Z,0
2017-10-05T01:06:56.641Z,0
2017-10-05T01:08:06.887Z,0
2017-10-05T01:09:16.508Z,0
2017-10-05T01:10:26.697Z,0
2017-10-05T01:11:36.945Z,0
2017-10-05T01:12:46.873Z,0
2017-10-05T01:13:56.809Z,0
2017-10-05T01:15:06.750Z,0
2017-10-05T01:16:16.986Z,0
2017-10-05T01:17:26.931Z,0
2017-10-05T01:18:36.866Z,0
2017-10-05T01:19:46.807Z,0
2017-10-05T01:20:57.069Z,0
2017-10-05T01:22:07.349Z,0
2017-10-05T01:23:17.604Z,0
2017-10-05T01:24:27.853Z,0
2017-10-05T01:25:37.477Z,0
2017-10-05T01:26:47.731Z,0
2017-10-05T01:27:58.240Z,0
2017-10-05T01:29:07.864Z,0
2017-10-05T01:30:18.117Z,0
2017-10-05T01:31:28.361Z,0
2017-10-05T01:32:38.610Z,0
2017-10-05T01:33:48.525Z,0
2017-10-05T01:34:58.764Z,0
2017-10-05T01:36:08.694Z,0
2017-10-05T01:37:18.956Z,0
2017-10-05T01:38:29.210Z,0
2017-10-05T01:39:39.762Z,0
2017-10-05T01:40:50.006Z,0
2017-10-05T01:42:00.258Z,0
2017-10-05T01:43:10.504Z,0
2017-10-05T01:44:20.756Z,0
2017-10-05T01:45:30.938Z,0
2017-10-05T01:46:40.874Z,0
2017-10-05T01:47:50.836Z,0
2017-10-05T01:49:01.078Z,0
2017-10-05T01:50:11.342Z,0
2017-10-05T01:51:21.856Z,0
2017-10-05T01:52:32.096Z,0
2017-10-05T01:53:42.025Z,0
2017-10-05T01:54:51.953Z,0
2017-10-05T01:56:02.200Z,0
2017-10-05T01:57:12.441Z,0
2017-10-05T01:58:22.375Z,0
2017-10-05T01:59:32.627Z,0
2017-10-05T02:00:42.875Z,0
2017-10-05T02:01:52.814Z,0
2017-10-05T02:03:03.102Z,0
2017-10-05T02:04:13.353Z,0
2017-10-05T02:05:23.596Z,0
2017-10-05T02:06:33.853Z,0
2017-10-05T02:07:44.096Z,0
2017-10-05T02:08:54.278Z,0
2017-10-05T02:10:04.523Z,0
2017-10-05T02:11:14.150Z,0
2017-10-05T02:12:24.398Z,0
2017-10-05T02:13:34.652Z,0
2017-10-05T02:14:44.832Z,0
2017-10-05T02:15:55.079Z,0
2017-10-05T02:17:05.357Z,0
2017-10-05T02:18:15.593Z,0
2017-10-05T02:19:25.871Z,0
2017-10-05T02:20:36.154Z,0
2017-10-05T02:21:46.414Z,0
2017-10-05T02:22:56.667Z,0
2017-10-05T02:24:06.919Z,0
2017-10-05T02:25:17.175Z,0
2017-10-05T02:26:27.773Z,0
2017-10-05T02:27:37.390Z,0
2017-10-05T02:28:47.019Z,0
2017-10-05T02:29:57.269Z,0
2017-10-05T02:31:07.517Z,0
2017-10-05T02:32:18.115Z,0
2017-10-05T02:33:28.360Z,0
2017-10-05T02:34:38.612Z,0
2017-10-05T02:35:48.875Z,0
2017-10-05T02:36:59.124Z,0
2017-10-05T02:38:09.324Z,0
2017-10-05T02:39:19.591Z,0
2017-10-05T02:40:29.861Z,0
2017-10-05T02:41:40.161Z,0
2017-10-05T02:42:50.421Z,0
2017-10-05T02:44:00.672Z,0
2017-10-05T02:45:10.921Z,0
2017-10-05T02:46:20.863Z,0
2017-10-05T02:47:31.153Z,0
2017-10-05T02:48:41.403Z,0
2017-10-05T02:49:51.972Z,0
2017-10-05T02:51:02.217Z,0
2017-10-05T02:52:11.839Z,0
2017-10-05T02:53:21.451Z,0
2017-10-05T02:54:31.080Z,0
2017-10-05T02:55:41.586Z,0
2017-10-05T02:56:51.527Z,0
2017-10-05T02:58:01.458Z,0
2017-10-05T02:59:11.388Z,0
2017-10-05T03:00:21.642Z,0
2017-10-05T03:01:32.140Z,0
2017-10-05T03:02:42.072Z,0
2017-10-05T03:03:51.693Z,0
2017-10-05T03:05:01.937Z,0
2017-10-05T03:06:12.201Z,0
2017-10-05T03:07:22.075Z,0
2017-10-05T03:08:32.309Z,0
2017-10-05T03:09:42.252Z,0
2017-10-05T03:10:52.497Z,0
2017-10-05T03:12:02.763Z,0
2017-10-05T03:13:13.312Z,0
2017-10-05T03:14:23.250Z,0
2017-10-05T03:15:33.500Z,0
2017-10-05T03:16:43.751Z,0
2017-10-05T03:17:53.703Z,0
2017-10-05T03:19:03.883Z,0
2017-10-05T03:20:14.136Z,0
2017-10-05T03:21:24.389Z,0
2017-10-05T03:22:34.328Z,0
2017-10-05T03:23:44.574Z,0
2017-10-05T03:24:54.444Z,0
2017-10-05T03:26:04.378Z,0
2017-10-05T03:27:14.630Z,0
2017-10-05T03:28:24.872Z,0
2017-10-05T03:29:35.119Z,0
2017-10-05T03:30:45.310Z,0
2017-10-05T03:31:55.567Z,0
2017-10-05T03:33:05.502Z,0
2017-10-05T03:34:15.116Z,0
2017-10-05T03:35:25.378Z,0
2017-10-05T03:36:35.872Z,0
2017-10-05T03:37:46.117Z,0
2017-10-05T03:38:56.057Z,0
2017-10-05T03:40:06.341Z,0
2017-10-05T03:41:16.593Z,0
2017-10-05T03:42:27.196Z,0
2017-10-05T03:43:37.439Z,0
2017-10-05T03:44:47.692Z,0
2017-10-05T03:45:57.963Z,0
2017-10-05T03:47:08.210Z,0
2017-10-05T03:48:18.761Z,0
2017-10-05T03:49:29.021Z,0
2017-10-05T03:50:39.269Z,0
2017-10-05T03:51:49.523Z,0
2017-10-05T03:52:59.785Z,0
2017-10-05T03:54:10.395Z,0
2017-10-05T03:55:20.808Z,0
2017-10-05T03:56:30.743Z,0
2017-10-05T03:57:40.986Z,0
2017-10-05T03:58:51.230Z,0
2017-10-05T04:00:01.518Z,0
2017-10-05T04:01:11.766Z,0
2017-10-05T04:02:22.017Z,0
2017-10-05T04:03:32.269Z,0
2017-10-05T04:04:42.211Z,0
2017-10-05T04:05:52.394Z,0
2017-10-05T04:07:02.326Z,0
2017-10-05T04:08:12.262Z,0
2017-10-05T04:09:22.501Z,0
2017-10-05T04:10:32.440Z,0
2017-10-05T04:11:43.043Z,0
2017-10-05T04:12:52.972Z,0
2017-10-05T04:14:03.218Z,0
2017-10-05T04:15:12.838Z,0
2017-10-05T04:16:23.089Z,0
2017-10-05T04:17:33.382Z,0
2017-10-05T04:18:43.630Z,0
2017-10-05T04:19:53.872Z,0
2017-10-05T04:21:03.805Z,0
2017-10-05T04:22:13.740Z,0
2017-10-05T04:23:24.295Z,0
2017-10-05T04:24:34.238Z,0
2017-10-05T04:25:44.187Z,0
2017-10-05T04:26:54.433Z,0
2017-10-05T04:28:04.690Z,0
2017-10-05T04:29:15.236Z,0
2017-10-05T04:30:25.490Z,0
2017-10-05T04:31:35.738Z,0
2017-10-05T04:32:45.362Z,0
2017-10-05T04:33:55.604Z,0
2017-10-05T04:35:06.205Z,0
2017-10-05T04:36:16.133Z,0
2017-10-05T04:37:26.065Z,0
2017-10-05T04:38:36.320Z,0
2017-10-05T04:39:46.261Z,0
2017-10-05T04:40:56.442Z,0
2017-10-05T04:42:06.688Z,0
2017-10-05T04:43:16.616Z,0
2017-10-05T04:44:26.567Z,0
2017-10-05T04:45:36.828Z,0
2017-10-05T04:46:47.360Z,0
2017-10-05T04:47:57.291Z,0
2017-10-05T04:49:07.547Z,0
2017-10-05T04:50:17.793Z,4
2017-10-05T04:51:28.047Z,4
2017-10-05T04:52:38.326Z,4
2017-10-05T04:53:48.558Z,4
2017-10-05T04:54:58.194Z,4
2017-10-05T04:56:08.436Z,4
2017-10-05T04:57:18.687Z,4
2017-10-05T04:58:28.876Z,4
2017-10-05T04:59:39.126Z,8
2017-10-05T05:00:49.382Z,8
2017-10-05T05:01:59.319Z,12
2017-10-05T05:03:08.935Z,20
2017-10-05T05:04:19.443Z,20
2017-10-05T05:05:29.388Z,20
2017-10-05T05:06:39.318Z,28
2017-10-05T05:07:49.557Z,32
2017-10-05T05:08:59.495Z,36
2017-10-05T05:10:10.057Z,40
2017-10-05T05:11:20.301Z,44
2017-10-05T05:12:30.235Z,48
2017-10-05T05:13:40.483Z,56
2017-10-05T05:14:50.725Z,60
2017-10-05T05:16:00.655Z,68
2017-10-05T05:17:10.905Z,76
2017-10-05T05:18:21.157Z,84
2017-10-05T05:19:31.633Z,96
2017-10-05T05:20:41.883Z,104
2017-10-05T05:21:52.123Z,104
2017-10-05T05:23:02.049Z,108
2017-10-05T05:24:12.303Z,120
2017-10-05T05:25:22.564Z,128
2017-10-05T05:26:32.816Z,144
2017-10-05T05:27:43.000Z,152
2017-10-05T05:28:53.259Z,156
2017-10-05T05:30:03.199Z,164
2017-10-05T05:31:13.440Z,156
2017-10-05T05:32:23.686Z,176
2017-10-05T05:33:33.863Z,200
2017-10-05T05:34:44.122Z,240
2017-10-05T05:35:54.067Z,248
2017-10-05T05:37:03.997Z,248
2017-10-05T05:38:13.925Z,260
2017-10-05T05:39:24.427Z,236
2017-10-05T05:40:34.683Z,244
2017-10-05T05:41:44.946Z,260
2017-10-05T05:42:55.229Z,280
2017-10-05T05:44:05.491Z,332
2017-10-05T05:45:16.105Z,372
2017-10-05T05:46:26.370Z,380
2017-10-05T05:47:36.633Z,428
2017-10-05T05:48:46.894Z,412
2017-10-05T05:49:57.160Z,372
2017-10-05T05:51:07.673Z,392
2017-10-05T05:52:17.906Z,516
2017-10-05T05:53:27.853Z,556
2017-10-05T05:54:38.106Z,536
2017-10-05T05:55:48.352Z,512
2017-10-05T05:56:58.615Z,512
2017-10-05T05:58:08.891Z,536
2017-10-05T05:59:19.145Z,588
2017-10-05T06:00:29.446Z,608
2017-10-05T06:01:39.370Z,596
2017-10-05T06:02:49.933Z,660
2017-10-05T06:04:00.179Z,828
2017-10-05T06:05:10.429Z,972
2017-10-05T06:06:20.690Z,1212
2017-10-05T06:07:30.944Z,1360
2017-10-05T06:08:40.868Z,1504
2017-10-05T06:09:50.802Z,1356
2017-10-05T06:11:01.062Z,1232
2017-10-05T06:12:11.318Z,1180
2017-10-05T06:13:21.567Z,1336
2017-10-05T06:14:32.165Z,1300
2017-10-05T06:15:42.434Z,1292
2017-10-05T06:16:52.709Z,1288
2017-10-05T06:18:02.963Z,1136
2017-10-05T06:19:13.226Z,968
2017-10-05T06:20:23.780Z,940
2017-10-05T06:21:34.035Z,1112
2017-10-05T06:22:43.962Z,1144
2017-10-05T06:23:54.212Z,1116
2017-10-05T06:25:04.522Z,1200
2017-10-05T06:26:14.714Z,1160
2017-10-05T06:27:24.979Z,1000
2017-10-05T06:28:35.237Z,1208
2017-10-05T06:29:45.478Z,1328
2017-10-05T06:30:55.759Z,1176
2017-10-05T06:32:06.387Z,1216
2017-10-05T06:33:16.631Z,1276
2017-10-05T06:34:26.560Z,1360
2017-10-05T06:35:36.499Z,1424
2017-10-05T06:36:46.451Z,1484
2017-10-05T06:37:57.008Z,1500
2017-10-05T06:39:07.266Z,1576
2017-10-05T06:40:17.219Z,1416
2017-10-05T06:41:27.164Z,1596
2017-10-05T06:42:37.121Z,1392
2017-10-05T06:43:47.619Z,1464
2017-10-05T06:44:57.873Z,1476
2017-10-05T06:46:08.176Z,1612
2017-10-05T06:47:18.438Z,1420
2017-10-05T06:48:28.692Z,1444
2017-10-05T06:49:39.278Z,1548
2017-10-05T06:50:49.239Z,1600
2017-10-05T06:51:59.520Z,1632
2017-10-05T06:53:09.807Z,2180
2017-10-05T06:54:19.769Z,1908
2017-10-05T06:55:30.296Z,1652
2017-10-05T06:56:40.567Z,1756
2017-10-05T06:57:50.910Z,2120
2017-10-05T06:59:01.357Z,1968
2017-10-05T07:00:11.652Z,2276
2017-10-05T07:01:22.189Z,2072
2017-10-05T07:02:31.805Z,1932
2017-10-05T07:03:42.063Z,1620
2017-10-05T07:04:52.003Z,2076
2017-10-05T07:06:02.251Z,2280
2017-10-05T07:07:12.814Z,2552
2017-10-05T07:08:23.081Z,3040
2017-10-05T07:09:33.384Z,3188
2017-10-05T07:10:43.658Z,3460
2017-10-05T07:11:53.953Z,2840
2017-10-05T07:13:04.486Z,2836
2017-10-05T07:14:14.740Z,3268
2017-10-05T07:15:24.675Z,3108
2017-10-05T07:16:34.950Z,3152
2017-10-05T07:17:44.918Z,3056
2017-10-05T07:18:55.412Z,3336
2017-10-05T07:20:05.367Z,2540
2017-10-05T07:21:15.654Z,2812
2017-10-05T07:22:25.280Z,3136
2017-10-05T07:23:35.536Z,2836
2017-10-05T07:24:46.054Z,2484
2017-10-05T07:25:56.329Z,2792
2017-10-05T07:27:06.608Z,2664
2017-10-05T07:28:16.547Z,2484
2017-10-05T07:29:26.807Z,2032
2017-10-05T07:30:37.054Z,1848
2017-10-05T07:31:46.993Z,2044
2017-10-05T07:32:56.620Z,2156
2017-10-05T07:34:06.886Z,2572
2017-10-05T07:35:17.147Z,2972
2017-10-05T07:36:27.677Z,3224
2017-10-05T07:37:37.955Z,2928
2017-10-05T07:38:48.443Z,3052
2017-10-05T07:39:58.334Z,2648
2017-10-05T07:41:08.625Z,2896
2017-10-05T07:42:18.941Z,2412
2017-10-05T07:43:29.204Z,1880
2017-10-05T07:44:39.476Z,1968
2017-10-05T07:45:49.433Z,2264
2017-10-05T07:46:59.727Z,2944
2017-10-05T07:48:10.312Z,3068
2017-10-05T07:49:20.601Z,2296
2017-10-05T07:50:30.557Z,1752
2017-10-05T07:51:40.794Z,1580
2017-10-05T07:52:51.177Z,2256
2017-10-05T07:54:01.531Z,2672
2017-10-05T07:55:11.818Z,3700
2017-10-05T07:56:22.099Z,4336
2017-10-05T07:57:32.052Z,4104
2017-10-05T07:58:41.985Z,3844
2017-10-05T07:59:52.508Z,3436
2017-10-05T08:01:02.791Z,2992
2017-10-05T08:02:12.751Z,2600
2017-10-05T08:03:23.007Z,1964
2017-10-05T08:04:33.299Z,1992
2017-10-05T08:05:43.548Z,2220
2017-10-05T08:06:53.512Z,2308
2017-10-05T08:08:03.782Z,2940
2017-10-05T08:09:14.026Z,3280
2017-10-05T08:10:23.967Z,3524
2017-10-05T08:11:34.523Z,3600
2017-10-05T08:12:44.820Z,4232
2017-10-05T08:13:54.753Z,4716
2017-10-05T08:15:04.688Z,5024
2017-10-05T08:16:14.981Z,5844
2017-10-05T08:17:25.187Z,6072
2017-10-05T08:18:35.463Z,5464
2017-10-05T08:19:45.747Z,5280
2017-10-05T08:20:55.716Z,5272
2017-10-05T08:22:05.988Z,5016
2017-10-05T08:23:16.557Z,5076
2017-10-05T08:24:26.935Z,4776
2017-10-05T08:25:37.226Z,3484
2017-10-05T08:26:47.481Z,4208
2017-10-05T08:27:57.750Z,3624
2017-10-05T08:29:07.933Z,3236
2017-10-05T08:30:18.211Z,3300
2017-10-05T08:31:28.150Z,3292
2017-10-05T08:32:38.110Z,3064
2017-10-05T08:33:48.369Z,2624
2017-10-05T08:34:58.893Z,3156
2017-10-05T08:36:09.130Z,3292
2017-10-05T08:37:19.069Z,3336
2017-10-05T08:38:29.571Z,3272
2017-10-05T08:39:39.823Z,2852
2017-10-05T08:40:50.040Z,2608
2017-10-05T08:42:00.314Z,2528
2017-10-05T08:43:10.584Z,2640
2017-10-05T08:44:20.557Z,2996
2017-10-05T08:45:30.520Z,3752
2017-10-05T08:46:41.358Z,4980
2017-10-05T08:47:51.327Z,5736
2017-10-05T08:49:01.302Z,5592
2017-10-05T08:50:11.278Z,4904
2017-10-05T08:51:21.225Z,5056
2017-10-05T08:52:31.869Z,4484
2017-10-05T08:53:41.833Z,4400
2017-10-05T08:54:51.891Z,4328
2017-10-05T08:56:02.196Z,4052
2017-10-05T08:57:12.150Z,3808
2017-10-05T08:58:22.726Z,3428
2017-10-05T08:59:32.685Z,3904
2017-10-05T09:00:42.977Z,4068
2017-10-05T09:01:53.274Z,4232
2017-10-05T09:03:03.574Z,4772
2017-10-05T09:04:13.774Z,4348
2017-10-05T09:05:24.057Z,4072
2017-10-05T09:06:34.529Z,3980
2017-10-05T09:07:44.791Z,3896
2017-10-05T09:08:55.038Z,3996
2017-10-05T09:10:05.861Z,4620
2017-10-05T09:11:15.808Z,4228
2017-10-05T09:12:26.017Z,5040
2017-10-05T09:13:36.309Z,4588
2017-10-05T09:14:46.841Z,4248
2017-10-05T09:15:57.422Z,4024
2017-10-05T09:17:07.683Z,4812
2017-10-05T09:18:17.945Z,4368
2017-10-05T09:19:27.904Z,4904
2017-10-05T09:20:37.531Z,5324
2017-10-05T09:21:47.714Z,6228
2017-10-05T09:22:57.988Z,6160
2017-10-05T09:24:08.282Z,4152
2017-10-05T09:25:18.594Z,3376
2017-10-05T09:26:28.859Z,2532
2017-10-05T09:27:38.795Z,2232
2017-10-05T09:28:49.067Z,2196
2017-10-05T09:29:59.031Z,2760
2017-10-05T09:31:09.286Z,3976
2017-10-05T09:32:19.546Z,5588
2017-10-05T09:33:29.756Z,5424
2017-10-05T09:34:40.007Z,6012
2017-10-05T09:35:49.971Z,6052
2017-10-05T09:37:00.236Z,8080
2017-10-05T09:38:10.183Z,7736
2017-10-05T09:39:20.685Z,8840
2017-10-05T09:40:31.176Z,8820
2017-10-05T09:41:41.132Z,7644
2017-10-05T09:42:51.406Z,6732
2017-10-05T09:44:01.663Z,6492
2017-10-05T09:45:11.861Z,5792
2017-10-05T09:46:22.109Z,4700
2017-10-05T09:47:32.044Z,5268
2017-10-05T09:48:42.295Z,4512
2017-10-05T09:49:52.544Z,3416
2017-10-05T09:51:03.118Z,2944
2017-10-05T09:52:13.365Z,2184
2017-10-05T09:53:23.304Z,2300
2017-10-05T09:54:32.929Z,2608
2017-10-05T09:55:43.185Z,3128
2017-10-05T09:56:53.630Z,3924
2017-10-05T09:58:03.885Z,4668
2017-10-05T09:59:14.144Z,5988
2017-10-05T10:00:24.419Z,7528
2017-10-05T10:01:34.813Z,7220
2017-10-05T10:02:45.363Z,6320
2017-10-05T10:03:55.308Z,4968
2017-10-05T10:05:05.256Z,5268
2017-10-05T10:06:15.194Z,5144
2017-10-05T10:07:25.496Z,5396
2017-10-05T10:08:35.674Z,5208
2017-10-05T10:09:45.615Z,6420
2017-10-05T10:10:55.570Z,5100
2017-10-05T10:12:05.814Z,3712
2017-10-05T10:13:15.774Z,3252
2017-10-05T10:14:25.647Z,2668
2017-10-05T10:15:35.900Z,2360
2017-10-05T10:16:45.853Z,2120
2017-10-05T10:17:56.108Z,2108
2017-10-05T10:19:06.062Z,2124
2017-10-05T10:20:16.765Z,2324
2017-10-05T10:21:26.707Z,2304
2017-10-05T10:22:36.964Z,2712
2017-10-05T10:23:46.896Z,3324
2017-10-05T10:24:57.158Z,4244
2017-10-05T10:26:07.676Z,5024
2017-10-05T10:27:17.938Z,5748
2017-10-05T10:28:28.185Z,6592
2017-10-05T10:29:38.131Z,5516
2017-10-05T10:30:48.399Z,5552
2017-10-05T10:31:58.917Z,4612
2017-10-05T10:33:09.226Z,4212
2017-10-05T10:34:19.170Z,5072
2017-10-05T10:35:29.435Z,4228
2017-10-05T10:36:39.418Z,3840
2017-10-05T10:37:49.630Z,3900
2017-10-05T10:38:59.885Z,3140
2017-10-05T10:40:09.840Z,2348
2017-10-05T10:41:20.101Z,2836
2017-10-05T10:42:30.361Z,3528
2017-10-05T10:43:40.878Z,3552
2017-10-05T10:44:51.118Z,4824
2017-10-05T10:46:01.390Z,4196
2017-10-05T10:47:11.698Z,6548
2017-10-05T10:48:21.955Z,5188
2017-10-05T10:49:32.466Z,5312
2017-10-05T10:50:42.724Z,6524
2017-10-05T10:51:52.982Z,4516
2017-10-05T10:53:02.931Z,3232
2017-10-05T10:54:13.202Z,2380
2017-10-05T10:55:23.770Z,3100
2017-10-05T10:56:33.719Z,2916
2017-10-05T10:57:43.659Z,3072
2017-10-05T10:58:53.913Z,3616
2017-10-05T11:00:03.859Z,4852
2017-10-05T11:01:14.398Z,5464
2017-10-05T11:02:24.659Z,6544
2017-10-05T11:03:34.919Z,6100
2017-10-05T11:04:45.179Z,7072
2017-10-05T11:05:55.144Z,6676
2017-10-05T11:07:05.649Z,5872
2017-10-05T11:08:15.909Z,4496
2017-10-05T11:09:26.196Z,4820
2017-10-05T11:10:36.492Z,4936
2017-10-05T11:11:46.760Z,4948
2017-10-05T11:12:57.276Z,5144
2017-10-05T11:14:07.568Z,4728
2017-10-05T11:15:17.836Z,4988
2017-10-05T11:16:28.135Z,5148
2017-10-05T11:17:38.392Z,5928
2017-10-05T11:18:48.651Z,7892
2017-10-05T11:19:58.910Z,6632
2017-10-05T11:21:08.863Z,6348
2017-10-05T11:22:19.132Z,8484
2017-10-05T11:23:28.751Z,6792
2017-10-05T11:24:39.308Z,8464
2017-10-05T11:25:49.573Z,9460
2017-10-05T11:26:59.837Z,6388
2017-10-05T11:28:10.105Z,6228
2017-10-05T11:29:20.362Z,7496
2017-10-05T11:30:30.882Z,6028
2017-10-05T11:31:41.145Z,6380
2017-10-05T11:32:51.417Z,5124
2017-10-05T11:34:01.680Z,4952
2017-10-05T11:35:11.936Z,4256
2017-10-05T11:36:22.473Z,4856
2017-10-05T11:37:32.469Z,6840
2017-10-05T11:38:42.805Z,7296
2017-10-05T11:39:52.759Z,4988
2017-10-05T11:41:03.024Z,5624
2017-10-05T11:42:13.540Z,6332
2017-10-05T11:43:23.849Z,6140
2017-10-05T11:44:34.096Z,5216
2017-10-05T11:45:44.360Z,5452
2017-10-05T11:46:54.603Z,6860
2017-10-05T11:48:05.109Z,6500
2017-10-05T11:49:15.070Z,7208
2017-10-05T11:50:25.322Z,8792
2017-10-05T11:51:35.592Z,8292
2017-10-05T11:52:45.845Z,7092
2017-10-05T11:53:56.415Z,5624
2017-10-05T11:55:06.665Z,5244
2017-10-05T11:56:16.609Z,5572
2017-10-05T11:57:26.876Z,5380
2017-10-05T11:58:36.833Z,6148
2017-10-05T11:59:46.400Z,7432
2017-10-05T12:00:56.662Z,6612
2017-10-05T12:02:06.932Z,9608
2017-10-05T12:03:17.184Z,8260
2017-10-05T12:04:27.139Z,7676
2017-10-05T12:05:37.587Z,11924
2017-10-05T12:06:47.877Z,18848
2017-10-05T12:07:57.814Z,17824
2017-10-05T12:09:08.101Z,21280
2017-10-05T12:10:18.056Z,37216
2017-10-05T12:11:28.593Z,42688
2017-10-05T12:12:38.871Z,34464
2017-10-05T12:13:49.142Z,18944
2017-10-05T12:14:59.390Z,18400
2017-10-05T12:16:09.661Z,12848
2017-10-05T12:17:19.852Z,9276
2017-10-05T12:18:30.094Z,8888
2017-10-05T12:19:39.790Z,13788
2017-10-05T12:20:50.046Z,17952
2017-10-05T12:22:00.307Z,21600
2017-10-05T12:23:10.832Z,32384
2017-10-05T12:24:21.110Z,42208
2017-10-05T12:25:31.373Z,37120
2017-10-05T12:26:41.641Z,31232
2017-10-05T12:27:51.881Z,29408
2017-10-05T12:29:02.390Z,18624
2017-10-05T12:30:12.659Z,14616
2017-10-05T12:31:22.284Z,10324
2017-10-05T12:32:32.553Z,11408
2017-10-05T12:33:42.816Z,8944
2017-10-05T12:34:53.330Z,11260
2017-10-05T12:36:03.276Z,14000
2017-10-05T12:37:13.565Z,16872
2017-10-05T12:38:23.834Z,19008
2017-10-05T12:39:34.119Z,21856
2017-10-05T12:40:44.685Z,15260
2017-10-05T12:41:54.927Z,9968
2017-10-05T12:43:04.880Z,9700
2017-10-05T12:44:14.833Z,13092
2017-10-05T12:45:24.467Z,16656
2017-10-05T12:46:34.965Z,16164
2017-10-05T12:47:44.903Z,18240
2017-10-05T12:48:54.529Z,18176
2017-10-05T12:50:04.478Z,11804
2017-10-05T12:51:14.419Z,11432
2017-10-05T12:52:24.297Z,13068
2017-10-05T12:53:34.594Z,11648
2017-10-05T12:54:44.843Z,14672
2017-10-05T12:55:55.102Z,11480
2017-10-05T12:57:05.051Z,8532
2017-10-05T12:58:15.245Z,12216
2017-10-05T12:59:25.205Z,9960
2017-10-05T13:00:35.457Z,6888
2017-10-05T13:01:45.410Z,7404
2017-10-05T13:02:55.676Z,6176
2017-10-05T13:04:05.869Z,7604
2017-10-05T13:05:15.600Z,8692
2017-10-05T13:06:25.872Z,8316
2017-10-05T13:07:35.825Z,5844
2017-10-05T13:08:45.763Z,4748
2017-10-05T13:09:56.278Z,5880
2017-10-05T13:11:06.532Z,6624
2017-10-05T13:12:16.503Z,8468
2017-10-05T13:13:26.450Z,13228
2017-10-05T13:14:36.704Z,10584
2017-10-05T13:15:46.894Z,8876
2017-10-05T13:16:57.154Z,7652
2017-10-05T13:18:07.411Z,6112
2017-10-05T13:19:17.667Z,4960
2017-10-05T13:20:27.925Z,6160
2017-10-05T13:21:38.436Z,4748
2017-10-05T13:22:48.724Z,5792
2017-10-05T13:23:58.993Z,8088
2017-10-05T13:25:09.245Z,8476
2017-10-05T13:26:19.499Z,10248
2017-10-05T13:27:29.999Z,6928
2017-10-05T13:28:40.257Z,5552
2017-10-05T13:29:50.192Z,5416
2017-10-05T13:31:00.451Z,4364
2017-10-05T13:32:10.080Z,4976
2017-10-05T13:33:20.595Z,5852
2017-10-05T13:34:30.533Z,5488
2017-10-05T13:35:40.807Z,6900
2017-10-05T13:36:51.069Z,6188
2017-10-05T13:38:00.679Z,5720
2017-10-05T13:39:10.879Z,4512
2017-10-05T13:40:21.146Z,4980
2017-10-05T13:41:31.419Z,6124
2017-10-05T13:42:41.684Z,5368
2017-10-05T13:43:51.944Z,4620
2017-10-05T13:45:02.136Z,4264
2017-10-05T13:46:12.077Z,2756
2017-10-05T13:47:21.696Z,2572
2017-10-05T13:48:31.662Z,3256
2017-10-05T13:49:41.937Z,5420
2017-10-05T13:50:52.435Z,5524
2017-10-05T13:52:02.699Z,4932
2017-10-05T13:53:13.211Z,4272
2017-10-05T13:54:23.467Z,5328
2017-10-05T13:55:33.724Z,3504
2017-10-05T13:56:43.925Z,2652
2017-10-05T13:57:54.190Z,2748
2017-10-05T13:59:04.437Z,3436
2017-10-05T14:00:14.697Z,2284
2017-10-05T14:01:24.987Z,2004
2017-10-05T14:02:35.324Z,1944
2017-10-05T14:03:45.576Z,1768
2017-10-05T14:04:55.873Z,2032
2017-10-05T14:06:05.811Z,2316
2017-10-05T14:07:15.775Z,2640
2017-10-05T14:08:25.980Z,3184
2017-10-05T14:09:36.274Z,4660
2017-10-05T14:10:46.532Z,4516
2017-10-05T14:11:56.483Z,5096
2017-10-05T14:13:06.747Z,5192
2017-10-05T14:14:16.938Z,3940
2017-10-05T14:15:26.566Z,5292
2017-10-05T14:16:36.499Z,3836
2017-10-05T14:17:46.445Z,2796
2017-10-05T14:18:56.695Z,2652
2017-10-05T14:20:06.318Z,2680
2017-10-05T14:21:16.556Z,2136
2017-10-05T14:22:26.813Z,2132
2017-10-05T14:23:37.077Z,2560
2017-10-05T14:24:47.007Z,2344
2017-10-05T14:25:57.209Z,2860
2017-10-05T14:27:07.460Z,2216
2017-10-05T14:28:17.714Z,2376
2017-10-05T14:29:27.965Z,3160
2017-10-05T14:30:37.597Z,3416
2017-10-05T14:31:47.787Z,4964
2017-10-05T14:32:58.031Z,3792
2017-10-05T14:34:07.970Z,3280
2017-10-05T14:35:17.931Z,2828
2017-10-05T14:36:28.212Z,3064
2017-10-05T14:37:38.402Z,2748
2017-10-05T14:38:48.347Z,3436
2017-10-05T14:39:58.610Z,2556
2017-10-05T14:41:08.858Z,2488
2017-10-05T14:42:19.111Z,2608
2017-10-05T14:43:29.618Z,2324
2017-10-05T14:44:39.889Z,2764
2017-10-05T14:45:50.159Z,2032
2017-10-05T14:47:00.417Z,2232
2017-10-05T14:48:10.676Z,2300
2017-10-05T14:49:20.864Z,2352
2017-10-05T14:50:31.113Z,2320
2017-10-05T14:51:41.372Z,1988
2017-10-05T14:52:51.316Z,2216
2017-10-05T14:54:01.576Z,2420
2017-10-05T14:55:12.090Z,2432
2017-10-05T14:56:22.050Z,2172
2017-10-05T14:57:31.993Z,2052
2017-10-05T14:58:41.922Z,1904
2017-10-05T14:59:51.862Z,2312
2017-10-05T15:01:02.118Z,2600
2017-10-05T15:02:12.375Z,3520
2017-10-05T15:03:22.656Z,2476
2017-10-05T15:04:32.924Z,2272
2017-10-05T15:05:43.173Z,2084
2017-10-05T15:06:53.393Z,2028
2017-10-05T15:08:03.646Z,1732
2017-10-05T15:09:13.906Z,1500
2017-10-05T15:10:23.859Z,1740
2017-10-05T15:11:34.120Z,1936
2017-10-05T15:12:44.636Z,1516
2017-10-05T15:13:54.945Z,1336
2017-10-05T15:15:04.890Z,1832
2017-10-05T15:16:15.166Z,1604
2017-10-05T15:17:25.099Z,2272
2017-10-05T15:18:35.292Z,3256
2017-10-05T15:19:45.548Z,2748
2017-10-05T15:20:55.827Z,2520
2017-10-05T15:22:06.083Z,2568
2017-10-05T15:23:16.030Z,2788
2017-10-05T15:24:26.524Z,2768
2017-10-05T15:25:36.804Z,3056
2017-10-05T15:26:46.746Z,3336
2017-10-05T15:27:57.011Z,2744
2017-10-05T15:29:06.657Z,2828
2017-10-05T15:30:16.834Z,3176
2017-10-05T15:31:27.095Z,2480
2017-10-05T15:32:37.367Z,1928
2017-10-05T15:33:47.317Z,1860
2017-10-05T15:34:57.581Z,1568
2017-10-05T15:36:08.091Z,1964
2017-10-05T15:37:18.356Z,2292
2017-10-05T15:38:28.611Z,2252
2017-10-05T15:39:38.860Z,2564
2017-10-05T15:40:49.121Z,2112
2017-10-05T15:41:59.626Z,2832
2017-10-05T15:43:09.904Z,2276
2017-10-05T15:44:20.149Z,2032
2017-10-05T15:45:30.079Z,2112
2017-10-05T15:46:39.698Z,1496
2017-10-05T15:47:49.877Z,1288
2017-10-05T15:49:00.129Z,864
2017-10-05T15:50:09.762Z,1176
2017-10-05T15:51:20.034Z,1188
2017-10-05T15:52:30.282Z,1136
2017-10-05T15:53:40.464Z,1428
2017-10-05T15:54:50.721Z,1032
2017-10-05T15:56:00.988Z,1016
2017-10-05T15:57:10.932Z,840
2017-10-05T15:58:20.881Z,848
2017-10-05T15:59:31.387Z,700
2017-10-05T16:00:41.640Z,604
2017-10-05T16:01:51.572Z,540
2017-10-05T16:03:01.828Z,628
2017-10-05T16:04:11.757Z,572
2017-10-05T16:05:21.948Z,516